createdAt,value
2022-12-01T00:01:25.036Z,2.32
2022-12-01T00:04:26.637Z,2.34
2022-12-01T00:07:28.283Z,2.33
2022-12-01T00:10:29.868Z,2.31
2022-12-01T00:13:31.951Z,2.29
2022-12-01T00:16:34.279Z,2.32
2022-12-01T00:19:35.971Z,2.32
2022-12-01T00:22:38.394Z,2.32
2022-12-01T00:25:39.972Z,2.31
2022-12-01T00:28:42.052Z,2.29
2022-12-01T00:31:43.643Z,2.33
2022-12-01T00:34:45.277Z,2.33
2022-12-01T00:37:46.846Z,2.35
2022-12-01T00:40:48.376Z,2.36
2022-12-01T00:43:50.698Z,2.35
2022-12-01T00:46:52.294Z,2.34
2022-12-01T00:49:53.918Z,2.36
2022-12-01T00:52:55.494Z,2.35
2022-12-01T00:55:57.271Z,2.37
2022-12-01T00:58:59.251Z,2.38
2022-12-01T01:02:00.881Z,2.37
2022-12-01T01:05:02.460Z,2.39
2022-12-01T01:08:07.791Z,2.38
2022-12-01T01:11:09.927Z,2.35
2022-12-01T01:14:11.480Z,2.38
2022-12-01T01:17:13.030Z,2.37
2022-12-01T01:20:14.617Z,2.38
2022-12-01T01:23:16.167Z,2.36
2022-12-01T01:26:23.859Z,2.36
2022-12-01T01:29:25.381Z,2.37
2022-12-01T01:32:26.892Z,2.39
2022-12-01T01:35:28.436Z,2.33
2022-12-01T01:38:30.282Z,2.35
2022-12-01T01:41:31.802Z,2.39
2022-12-01T01:44:59.758Z,2.39
2022-12-01T01:48:03.671Z,2.40
2022-12-01T01:51:06.072Z,2.38
2022-12-01T01:54:15.584Z,2.35
2022-12-01T01:57:24.348Z,2.35
2022-12-01T02:00:25.958Z,2.35
2022-12-01T02:03:28.281Z,2.34
2022-12-01T02:06:29.870Z,2.35
2022-12-01T02:09:31.437Z,2.37
2022-12-01T02:12:58.747Z,2.34
2022-12-01T02:16:20.808Z,2.33
2022-12-01T02:19:28.258Z,2.30
2022-12-01T02:22:53.923Z,2.26
2022-12-01T02:26:01.927Z,2.25
2022-12-01T02:29:30.258Z,2.25
2022-12-01T02:32:46.953Z,2.24
2022-12-01T02:36:06.677Z,2.24
2022-12-01T02:39:19.504Z,2.21
2022-12-01T02:42:48.749Z,2.20
2022-12-01T02:46:05.742Z,2.19
2022-12-01T02:49:13.154Z,2.19
2022-12-01T02:52:16.155Z,2.17
2022-12-01T02:55:17.810Z,2.18
2022-12-01T02:58:19.869Z,2.18
2022-12-01T03:01:32.405Z,2.19
2022-12-01T03:04:56.776Z,2.22
2022-12-01T03:08:07.431Z,2.22
2022-12-01T03:11:26.802Z,2.22
2022-12-01T03:14:45.675Z,2.22
2022-12-01T03:17:59.950Z,2.24
2022-12-01T03:21:10.327Z,2.25
2022-12-01T03:24:15.339Z,2.27
2022-12-01T03:27:21.364Z,2.30
2022-12-01T03:30:25.348Z,2.30
2022-12-01T03:33:33.941Z,2.33
2022-12-01T03:36:41.024Z,2.33
2022-12-01T03:39:45.134Z,2.30
2022-12-01T03:42:53.492Z,2.30
2022-12-01T03:46:27.613Z,2.30
2022-12-01T03:49:30.117Z,2.28
2022-12-01T03:52:59.805Z,2.30
2022-12-01T03:56:04.844Z,2.31
2022-12-01T03:59:09.828Z,2.32
2022-12-01T04:02:12.450Z,2.32
2022-12-01T04:05:14.619Z,2.27
2022-12-01T04:08:16.172Z,2.30
2022-12-01T04:11:36.179Z,2.31
2022-12-01T04:14:37.725Z,2.32
2022-12-01T04:17:40.181Z,2.33
2022-12-01T04:20:43.399Z,2.34
2022-12-01T04:24:00.079Z,2.35
2022-12-01T04:27:01.657Z,2.37
2022-12-01T04:30:05.568Z,2.35
2022-12-01T04:33:07.138Z,2.37
2022-12-01T04:36:09.184Z,2.36
2022-12-01T04:39:10.723Z,2.37
2022-12-01T04:42:12.535Z,2.38
2022-12-01T04:45:14.034Z,2.38
2022-12-01T04:48:15.720Z,2.37
2022-12-01T04:51:17.621Z,2.38
2022-12-01T04:54:19.215Z,2.38
2022-12-01T04:57:20.722Z,2.37
2022-12-01T05:00:23.087Z,2.38
2022-12-01T05:03:24.616Z,2.37
2022-12-01T05:06:28.324Z,2.38
2022-12-01T05:09:29.863Z,2.38
2022-12-01T05:12:31.687Z,2.41
2022-12-01T05:15:33.260Z,2.43
2022-12-01T05:18:35.301Z,2.43
2022-12-01T05:21:36.899Z,2.43
2022-12-01T05:24:38.432Z,2.40
2022-12-01T05:27:39.974Z,2.41
2022-12-01T05:30:41.562Z,2.38
2022-12-01T05:33:43.109Z,2.40
2022-12-01T05:36:44.669Z,2.39
2022-12-01T05:39:46.382Z,2.37
2022-12-01T05:42:48.197Z,2.40
2022-12-01T05:45:50.250Z,2.40
2022-12-01T05:48:52.007Z,2.43
2022-12-01T05:51:53.587Z,2.46
2022-12-01T05:54:55.091Z,2.45
2022-12-01T05:57:56.592Z,2.46
2022-12-01T06:00:58.720Z,2.44
2022-12-01T06:04:00.342Z,2.48
2022-12-01T06:07:01.945Z,2.48
2022-12-01T06:10:03.872Z,2.50
2022-12-01T06:13:05.401Z,2.48
2022-12-01T06:16:07.469Z,2.50
2022-12-01T06:19:09.069Z,2.48
2022-12-01T06:22:11.003Z,2.50
2022-12-01T06:25:12.680Z,2.51
2022-12-01T06:28:14.400Z,2.49
2022-12-01T06:31:15.924Z,2.50
2022-12-01T06:34:17.457Z,2.48
2022-12-01T06:37:19.064Z,2.49
2022-12-01T06:40:20.657Z,2.52
2022-12-01T06:43:22.183Z,2.41
2022-12-01T06:46:23.776Z,2.47
2022-12-01T06:49:25.320Z,2.44
2022-12-01T06:52:26.859Z,2.46
2022-12-01T06:55:28.406Z,2.47
2022-12-01T06:58:30.382Z,2.49
2022-12-01T07:01:32.307Z,2.50
2022-12-01T07:04:34.010Z,2.52
2022-12-01T07:07:37.229Z,2.51
2022-12-01T07:10:38.767Z,2.52
2022-12-01T07:13:42.139Z,2.54
2022-12-01T07:16:43.768Z,2.53
2022-12-01T07:19:45.377Z,2.55
2022-12-01T07:22:46.942Z,2.56
2022-12-01T07:25:48.481Z,2.54
2022-12-01T07:28:50.009Z,2.55
2022-12-01T07:31:51.525Z,2.54
2022-12-01T07:34:53.039Z,2.58
2022-12-01T07:37:57.577Z,2.59
2022-12-01T07:41:09.680Z,2.61
2022-12-01T07:44:11.304Z,2.60
2022-12-01T07:47:12.882Z,2.59
2022-12-01T07:50:14.435Z,2.61
2022-12-01T07:53:15.994Z,2.60
2022-12-01T07:56:18.342Z,2.60
2022-12-01T07:59:20.424Z,2.60
2022-12-01T08:02:22.112Z,2.63
2022-12-01T08:05:23.696Z,2.66
2022-12-01T08:08:25.861Z,2.66
2022-12-01T08:11:29.839Z,2.68
2022-12-01T08:14:31.404Z,2.71
2022-12-01T08:17:32.997Z,2.67
2022-12-01T08:20:34.524Z,2.72
2022-12-01T08:23:36.105Z,2.75
2022-12-01T08:26:37.630Z,2.77
2022-12-01T08:29:39.157Z,2.77
2022-12-01T08:32:40.717Z,2.75
2022-12-01T08:35:42.309Z,2.75
2022-12-01T08:38:45.276Z,2.75
2022-12-01T08:41:46.847Z,2.78
2022-12-01T08:44:48.565Z,2.79
2022-12-01T08:47:50.420Z,2.79
2022-12-01T08:50:52.039Z,2.80
2022-12-01T08:53:55.388Z,2.83
2022-12-01T08:56:56.977Z,2.83
2022-12-01T08:59:58.727Z,2.85
2022-12-01T09:03:00.950Z,2.87
2022-12-01T09:06:05.348Z,2.91
2022-12-01T09:09:11.676Z,2.90
2022-12-01T09:12:13.414Z,2.87
2022-12-01T09:15:15.063Z,2.92
2022-12-01T09:18:16.598Z,2.93
2022-12-01T09:21:26.964Z,2.96
2022-12-01T09:24:28.483Z,2.97
2022-12-01T09:27:29.987Z,3.00
2022-12-01T09:30:31.583Z,3.02
2022-12-01T09:33:33.577Z,3.03
2022-12-01T09:36:37.102Z,3.02
2022-12-01T09:39:38.627Z,3.02
2022-12-01T09:42:40.768Z,3.03
2022-12-01T09:45:47.473Z,3.04
2022-12-01T09:48:51.380Z,3.03
2022-12-01T09:51:54.489Z,3.06
2022-12-01T09:54:59.225Z,3.06
2022-12-01T09:58:03.331Z,3.06
2022-12-01T10:01:05.197Z,3.05
2022-12-01T10:04:16.564Z,3.05
2022-12-01T10:07:25.414Z,3.07
2022-12-01T10:10:34.802Z,3.12
2022-12-01T10:13:36.420Z,3.11
2022-12-01T10:16:47.933Z,3.13
2022-12-01T10:20:19.079Z,3.14
2022-12-01T10:23:53.044Z,3.09
2022-12-01T10:27:43.537Z,3.10
2022-12-01T10:30:53.817Z,3.13
2022-12-01T10:34:11.420Z,3.17
2022-12-01T10:37:18.899Z,3.19
2022-12-01T10:40:20.594Z,3.21
2022-12-01T10:43:39.447Z,3.21
2022-12-01T10:46:47.464Z,3.23
2022-12-01T10:49:49.517Z,3.26
2022-12-01T10:52:51.320Z,3.25
2022-12-01T10:56:04.741Z,3.26
2022-12-01T10:59:25.397Z,3.28
2022-12-01T11:02:30.403Z,3.29
2022-12-01T11:05:40.436Z,3.25
2022-12-01T11:09:22.903Z,3.30
2022-12-01T11:12:28.696Z,3.30
2022-12-01T11:15:39.647Z,3.35
2022-12-01T11:18:41.803Z,3.34
2022-12-01T11:21:52.362Z,3.34
2022-12-01T11:24:53.814Z,3.37
2022-12-01T11:28:01.340Z,3.34
2022-12-01T11:31:06.462Z,3.39
2022-12-01T11:34:20.570Z,3.41
2022-12-01T11:37:24.756Z,3.39
2022-12-01T11:40:29.689Z,3.42
2022-12-01T11:43:37.338Z,3.43
2022-12-01T11:46:50.165Z,3.44
2022-12-01T11:50:06.976Z,3.49
2022-12-01T11:53:28.689Z,3.53
2022-12-01T11:56:31.356Z,3.48
2022-12-01T11:59:33.227Z,3.47
2022-12-01T12:03:09.973Z,3.49
2022-12-01T12:06:50.471Z,3.51
2022-12-01T12:10:04.187Z,3.47
2022-12-01T12:13:27.470Z,3.47
2022-12-01T12:16:50.601Z,3.43
2022-12-01T12:20:14.107Z,3.46
2022-12-01T12:23:30.977Z,3.49
2022-12-01T12:26:40.395Z,3.49
2022-12-01T12:29:56.436Z,3.51
2022-12-01T12:33:16.661Z,3.54
2022-12-01T12:36:37.094Z,3.54
2022-12-01T12:39:58.943Z,3.55
2022-12-01T12:43:36.555Z,3.52
2022-12-01T12:46:47.053Z,3.53
2022-12-01T12:49:59.686Z,3.52
2022-12-01T12:53:09.407Z,3.53
2022-12-01T12:56:14.615Z,3.53
2022-12-01T12:59:28.092Z,3.53
2022-12-01T13:02:55.435Z,3.54
2022-12-01T13:06:10.012Z,3.58
2022-12-01T13:09:20.188Z,3.58
2022-12-01T13:12:28.313Z,3.58
2022-12-01T13:15:31.393Z,3.58
2022-12-01T13:19:05.850Z,3.62
2022-12-01T13:22:08.204Z,3.64
2022-12-01T13:25:13.992Z,3.65
2022-12-01T13:28:20.808Z,3.66
2022-12-01T13:31:23.080Z,3.68
2022-12-01T13:34:39.705Z,3.68
2022-12-01T13:37:41.960Z,3.67
2022-12-01T13:40:43.593Z,3.68
2022-12-01T13:43:53.239Z,3.69
2022-12-01T13:47:04.372Z,3.69
2022-12-01T13:50:39.000Z,3.70
2022-12-01T13:54:06.242Z,3.70
2022-12-01T13:57:13.979Z,3.70
2022-12-01T14:00:21.825Z,3.70
2022-12-01T14:03:23.384Z,3.71
2022-12-01T14:06:30.951Z,3.72
2022-12-01T14:09:36.882Z,3.71
2022-12-01T14:12:41.576Z,3.72
2022-12-01T14:15:43.751Z,3.73
2022-12-01T14:18:55.965Z,3.74
2022-12-01T14:21:57.869Z,3.76
2022-12-01T14:24:59.924Z,3.75
2022-12-01T14:28:03.884Z,3.73
2022-12-01T14:31:05.907Z,3.71
2022-12-01T14:34:19.112Z,3.73
2022-12-01T14:37:24.815Z,3.73
2022-12-01T14:40:30.079Z,3.71
2022-12-01T14:47:10.920Z,3.65
2022-12-01T14:50:25.092Z,3.65
2022-12-01T14:53:33.945Z,3.60
2022-12-01T14:56:36.857Z,3.65
2022-12-01T14:59:38.441Z,3.65
2022-12-01T15:02:50.936Z,3.66
2022-12-01T15:05:52.630Z,3.66
2022-12-01T15:09:32.194Z,3.67
2022-12-01T15:12:29.481Z,3.66
2022-12-01T15:15:31.003Z,3.66
2022-12-01T15:18:34.871Z,3.66
2022-12-01T15:21:37.375Z,3.65
2022-12-01T15:24:39.427Z,3.64
2022-12-01T15:27:43.385Z,3.64
2022-12-01T15:30:49.947Z,3.63
2022-12-01T15:33:53.305Z,3.63
2022-12-01T15:36:55.437Z,3.64
2022-12-01T15:40:54.071Z,3.62
2022-12-01T15:43:43.498Z,3.56
2022-12-01T15:46:45.531Z,3.57
2022-12-01T15:49:50.039Z,3.59
2022-12-01T15:52:51.797Z,3.59
2022-12-01T15:55:59.000Z,3.60
2022-12-01T15:59:16.061Z,3.58
2022-12-01T16:02:34.152Z,3.57
2022-12-01T16:05:36.142Z,3.58
2022-12-01T16:08:37.924Z,3.54
2022-12-01T16:11:40.101Z,3.53
2022-12-01T16:14:59.845Z,3.56
2022-12-01T16:18:26.629Z,3.56
2022-12-01T16:21:33.426Z,3.56
2022-12-01T16:24:38.586Z,3.54
2022-12-01T16:27:40.679Z,3.51
2022-12-01T16:30:42.289Z,3.53
2022-12-01T16:33:43.910Z,3.49
2022-12-01T16:36:45.728Z,3.50
2022-12-01T16:39:47.281Z,3.47
2022-12-01T16:42:49.957Z,3.49
2022-12-01T16:46:00.474Z,3.50
2022-12-01T16:49:02.127Z,3.48
2022-12-01T16:52:22.172Z,3.46
2022-12-01T16:55:43.517Z,3.49
2022-12-01T16:58:45.127Z,3.46
2022-12-01T17:01:46.856Z,3.39
2022-12-01T17:04:48.726Z,3.49
2022-12-01T17:07:50.778Z,3.49
2022-12-01T17:10:54.716Z,3.49
2022-12-01T17:13:56.256Z,3.49
2022-12-01T17:17:01.042Z,3.48
2022-12-01T17:20:04.184Z,3.48
2022-12-01T17:23:06.209Z,3.49
2022-12-01T17:26:13.046Z,3.47
2022-12-01T17:29:14.582Z,3.48
2022-12-01T17:32:16.135Z,3.46
2022-12-01T17:35:17.978Z,3.45
2022-12-01T17:38:19.535Z,3.44
2022-12-01T17:41:25.476Z,3.43
2022-12-01T17:44:27.034Z,3.41
2022-12-01T17:47:28.603Z,3.41
2022-12-01T17:50:30.138Z,3.39
2022-12-01T17:53:32.922Z,3.37
2022-12-01T17:56:35.233Z,3.40
2022-12-01T17:59:36.922Z,3.40
2022-12-01T18:02:38.659Z,3.38
2022-12-01T18:05:40.233Z,3.33
2022-12-01T18:08:42.774Z,3.36
2022-12-01T18:11:44.333Z,3.39
2022-12-01T18:14:45.863Z,3.38
2022-12-01T18:17:47.423Z,3.38
2022-12-01T18:20:48.942Z,3.35
2022-12-01T18:23:56.264Z,3.33
2022-12-01T18:26:57.860Z,3.32
2022-12-01T18:29:59.373Z,3.34
2022-12-01T18:33:01.649Z,3.34
2022-12-01T18:36:03.944Z,3.34
2022-12-01T18:39:08.083Z,3.34
2022-12-01T18:42:09.761Z,3.36
2022-12-01T18:45:12.758Z,3.36
2022-12-01T18:48:15.873Z,3.37
2022-12-01T18:51:18.218Z,3.37
2022-12-01T18:54:19.731Z,3.38
2022-12-01T18:57:22.532Z,3.38
2022-12-01T19:00:24.153Z,3.39
2022-12-01T19:03:29.405Z,3.39
2022-12-01T19:06:32.723Z,3.38
2022-12-01T19:09:34.273Z,3.38
2022-12-01T19:12:40.827Z,3.38
2022-12-01T19:15:43.054Z,3.38
2022-12-01T19:18:45.412Z,3.40
2022-12-01T19:21:47.441Z,3.40
2022-12-01T19:24:50.745Z,3.41
2022-12-01T19:27:53.211Z,3.38
2022-12-01T19:30:54.765Z,3.38
2022-12-01T19:33:56.460Z,3.39
2022-12-01T19:36:59.459Z,3.39
2022-12-01T19:40:02.094Z,3.38
2022-12-01T19:43:03.711Z,3.37
2022-12-01T19:46:20.229Z,3.40
2022-12-01T19:49:22.215Z,3.39
2022-12-01T19:52:23.890Z,3.37
2022-12-01T19:55:25.764Z,3.38
2022-12-01T19:58:27.291Z,3.38
2022-12-01T20:01:29.038Z,3.38
2022-12-01T20:04:30.899Z,3.38
2022-12-01T20:07:32.512Z,3.38
2022-12-01T20:10:34.373Z,3.38
2022-12-01T20:13:38.387Z,3.37
2022-12-01T20:16:40.478Z,3.35
2022-12-01T20:19:42.080Z,3.36
2022-12-01T20:22:43.715Z,3.33
2022-12-01T20:25:45.216Z,3.34
2022-12-01T20:28:51.246Z,3.32
2022-12-01T20:31:55.052Z,3.34
2022-12-01T20:34:56.666Z,3.36
2022-12-01T20:37:58.170Z,3.35
2022-12-01T20:40:59.818Z,3.38
2022-12-01T20:44:06.921Z,3.38
2022-12-01T20:47:08.967Z,3.38
2022-12-01T20:50:10.718Z,3.37
2022-12-01T20:53:12.357Z,3.37
2022-12-01T20:56:14.488Z,3.32
2022-12-01T20:59:16.016Z,3.37
2022-12-01T21:02:17.557Z,3.36
2022-12-01T21:05:19.097Z,3.36
2022-12-01T21:08:20.644Z,3.34
2022-12-01T21:11:51.762Z,3.37
2022-12-01T21:15:08.962Z,3.35
2022-12-01T21:18:20.639Z,3.35
2022-12-01T21:21:27.587Z,3.36
2022-12-01T21:24:35.012Z,3.36
2022-12-01T21:27:39.544Z,3.35
2022-12-01T21:30:41.095Z,3.34
2022-12-01T21:33:43.227Z,3.33
2022-12-01T21:36:46.602Z,3.33
2022-12-01T21:39:51.112Z,3.33
2022-12-01T21:42:53.202Z,3.31
2022-12-01T21:46:14.226Z,3.33
2022-12-01T21:49:21.240Z,3.30
2022-12-01T21:52:30.116Z,3.29
2022-12-01T21:55:34.912Z,3.29
2022-12-01T21:58:37.346Z,3.30
2022-12-01T22:01:40.328Z,3.31
2022-12-01T22:04:43.303Z,3.32
2022-12-01T22:07:44.894Z,3.31
2022-12-01T22:10:55.948Z,3.31
2022-12-01T22:14:15.564Z,3.29
2022-12-01T22:17:21.686Z,3.29
2022-12-01T22:20:23.237Z,3.28
2022-12-01T22:23:33.280Z,3.27
2022-12-01T22:26:37.537Z,3.27
2022-12-01T22:29:46.990Z,3.24
2022-12-01T22:33:05.184Z,3.23
2022-12-01T22:36:21.941Z,3.21
2022-12-01T22:39:33.924Z,3.21
2022-12-01T22:42:35.508Z,3.22
2022-12-01T22:45:38.612Z,3.21
2022-12-01T22:48:45.115Z,3.21
2022-12-01T22:51:49.512Z,3.21
2022-12-01T22:54:51.367Z,3.21
2022-12-01T22:57:53.937Z,3.22
2022-12-01T23:00:57.935Z,3.21
2022-12-01T23:04:19.740Z,3.20
2022-12-01T23:07:41.489Z,3.19
2022-12-01T23:10:43.375Z,3.22
2022-12-01T23:13:44.906Z,3.20
2022-12-01T23:16:46.542Z,3.21
2022-12-01T23:19:52.990Z,3.20
2022-12-01T23:23:00.503Z,3.18
2022-12-01T23:26:07.500Z,3.17
2022-12-01T23:29:09.094Z,3.10
2022-12-01T23:32:12.268Z,3.13
2022-12-01T23:35:16.827Z,3.12
2022-12-01T23:38:22.151Z,3.13
2022-12-01T23:41:41.047Z,3.11
2022-12-01T23:44:47.135Z,3.12
2022-12-01T23:47:49.954Z,3.12
2022-12-01T23:50:53.657Z,3.13
2022-12-01T23:53:56.759Z,3.15
2022-12-01T23:57:02.684Z,3.16
